sensor_id;sensor_type;location;lat;lon;timestamp;temperature;humidity
24632;DHT22;59977;48.782;9.190;2023-02-11T00:01:37;2.00;99.90
24632;DHT22;59977;48.782;9.190;2023-02-11T00:04:04;1.90;99.90
24632;DHT22;59977;48.782;9.190;2023-02-11T00:06:31;1.90;99.90
24632;DHT22;59977;48.782;9.190;2023-02-11T00:08:57;1.80;99.90
24632;DHT22;59977;48.782;9.190;2023-02-11T00:11:24;1.80;99.90
24632;DHT22;59977;48.782;9.190;2023-02-11T00:13:51;1.80;99.90
24632;DHT22;59977;48.782;9.190;2023-02-11T00:16:19;1.80;99.90
24632;DHT22;59977;48.782;9.190;2023-02-11T00:18:45;1.80;99.90
24632;DHT22;59977;48.782;9.190;2023-02-11T00:21:17;1.70;99.90
24632;DHT22;59977;48.782;9.190;2023-02-11T00:23:44;1.60;99.90
24632;DHT22;59977;48.782;9.190;2023-02-11T00:28:45;1.60;99.90
24632;DHT22;59977;48.782;9.190;2023-02-11T00:31:12;1.60;99.90
24632;DHT22;59977;48.782;9.190;2023-02-11T00:33:38;1.60;99.90
24632;DHT22;59977;48.782;9.190;2023-02-11T00:36:09;1.70;99.90
24632;DHT22;59977;48.782;9.190;2023-02-11T00:38:42;1.70;99.90
24632;DHT22;59977;48.782;9.190;2023-02-11T00:41:09;1.70;99.90
24632;DHT22;59977;48.782;9.190;2023-02-11T00:43:34;1.70;99.90
24632;DHT22;59977;48.782;9.190;2023-02-11T00:46:00;1.70;99.90
24632;DHT22;59977;48.782;9.190;2023-02-11T00:48:26;1.70;99.90
24632;DHT22;59977;48.782;9.190;2023-02-11T00:50:51;1.80;99.90
24632;DHT22;59977;48.782;9.190;2023-02-11T00:53:17;1.80;99.90
24632;DHT22;59977;48.782;9.190;2023-02-11T00:55:42;1.80;99.90
24632;DHT22;59977;48.782;9.190;2023-02-11T00:58:08;1.80;99.90
24632;DHT22;59977;48.782;9.190;2023-02-11T01:00:34;1.80;99.90
24632;DHT22;59977;48.782;9.190;2023-02-11T01:02:59;1.90;99.90
24632;DHT22;59977;48.782;9.190;2023-02-11T01:05:25;1.80;99.90
24632;DHT22;59977;48.782;9.190;2023-02-11T01:07:50;1.80;99.90
24632;DHT22;59977;48.782;9.190;2023-02-11T01:10:16;1.70;99.90
24632;DHT22;59977;48.782;9.190;2023-02-11T01:12:42;1.70;99.90
24632;DHT22;59977;48.782;9.190;2023-02-11T01:15:08;1.70;99.90
24632;DHT22;59977;48.782;9.190;2023-02-11T01:17:35;1.70;99.90
24632;DHT22;59977;48.782;9.190;2023-02-11T01:20:07;1.60;99.90
24632;DHT22;59977;48.782;9.190;2023-02-11T01:22:32;1.60;99.90
24632;DHT22;59977;48.782;9.190;2023-02-11T01:25:04;1.50;99.90
24632;DHT22;59977;48.782;9.190;2023-02-11T01:27:30;1.50;99.90
24632;DHT22;59977;48.782;9.190;2023-02-11T01:29:56;1.40;99.90
24632;DHT22;59977;48.782;9.190;2023-02-11T01:32:21;1.40;99.90
24632;DHT22;59977;48.782;9.190;2023-02-11T01:34:47;1.40;99.90
24632;DHT22;59977;48.782;9.190;2023-02-11T01:37:12;1.40;99.90
24632;DHT22;59977;48.782;9.190;2023-02-11T01:39:38;1.40;99.90
24632;DHT22;59977;48.782;9.190;2023-02-11T01:42:04;1.40;99.90
24632;DHT22;59977;48.782;9.190;2023-02-11T01:44:36;1.50;99.90
24632;DHT22;59977;48.782;9.190;2023-02-11T01:47:02;1.50;99.90
24632;DHT22;59977;48.782;9.190;2023-02-11T01:49:32;1.60;99.90
24632;DHT22;59977;48.782;9.190;2023-02-11T01:54:35;1.60;99.90
24632;DHT22;59977;48.782;9.190;2023-02-11T01:57:22;1.60;99.90
24632;DHT22;59977;48.782;9.190;2023-02-11T02:10:27;1.60;99.90
24632;DHT22;59977;48.782;9.190;2023-02-11T02:12:53;1.60;99.90
24632;DHT22;59977;48.782;9.190;2023-02-11T02:15:31;1.60;99.90
24632;DHT22;59977;48.782;9.190;2023-02-11T02:18:07;1.50;99.90
24632;DHT22;59977;48.782;9.190;2023-02-11T02:37:29;1.50;99.90
24632;DHT22;59977;48.782;9.190;2023-02-11T02:39:58;1.50;99.90
24632;DHT22;59977;48.782;9.190;2023-02-11T02:42:27;1.50;99.90
24632;DHT22;59977;48.782;9.190;2023-02-11T02:44:54;1.40;99.90
24632;DHT22;59977;48.782;9.190;2023-02-11T02:47:20;1.40;99.90
24632;DHT22;59977;48.782;9.190;2023-02-11T02:49:46;1.40;99.90
24632;DHT22;59977;48.782;9.190;2023-02-11T02:55:29;1.30;99.90
24632;DHT22;59977;48.782;9.190;2023-02-11T03:07:54;1.20;99.90
24632;DHT22;59977;48.782;9.190;2023-02-11T03:10:16;1.20;99.90
24632;DHT22;59977;48.782;9.190;2023-02-11T03:12:45;1.20;99.90
24632;DHT22;59977;48.782;9.190;2023-02-11T03:15:12;1.30;99.90
24632;DHT22;59977;48.782;9.190;2023-02-11T03:17:41;1.30;99.90
24632;DHT22;59977;48.782;9.190;2023-02-11T03:20:10;1.40;99.90
24632;DHT22;59977;48.782;9.190;2023-02-11T03:22:48;1.40;99.90
24632;DHT22;59977;48.782;9.190;2023-02-11T03:25:14;1.40;99.90
24632;DHT22;59977;48.782;9.190;2023-02-11T03:27:58;1.40;99.90
24632;DHT22;59977;48.782;9.190;2023-02-11T03:30:39;1.40;99.90
24632;DHT22;59977;48.782;9.190;2023-02-11T03:33:30;1.40;99.90
24632;DHT22;59977;48.782;9.190;2023-02-11T03:36:11;1.40;99.90
24632;DHT22;59977;48.782;9.190;2023-02-11T03:38:45;1.40;99.90
24632;DHT22;59977;48.782;9.190;2023-02-11T03:41:12;1.40;99.90
24632;DHT22;59977;48.782;9.190;2023-02-11T03:43:44;1.40;99.90
24632;DHT22;59977;48.782;9.190;2023-02-11T03:46:11;1.40;99.90
24632;DHT22;59977;48.782;9.190;2023-02-11T03:48:41;1.40;99.90
24632;DHT22;59977;48.782;9.190;2023-02-11T03:51:10;1.40;99.90
24632;DHT22;59977;48.782;9.190;2023-02-11T03:53:38;1.50;99.90
24632;DHT22;59977;48.782;9.190;2023-02-11T03:56:08;1.50;99.90
24632;DHT22;59977;48.782;9.190;2023-02-11T03:58:34;1.50;99.90
24632;DHT22;59977;48.782;9.190;2023-02-11T04:01:00;1.60;99.90
24632;DHT22;59977;48.782;9.190;2023-02-11T04:03:27;1.60;99.90
24632;DHT22;59977;48.782;9.190;2023-02-11T04:05:52;1.60;99.90
24632;DHT22;59977;48.782;9.190;2023-02-11T04:08:19;1.60;99.90
24632;DHT22;59977;48.782;9.190;2023-02-11T04:10:44;1.60;99.90
24632;DHT22;59977;48.782;9.190;2023-02-11T04:13:10;1.60;99.90
24632;DHT22;59977;48.782;9.190;2023-02-11T04:15:35;1.60;99.90
24632;DHT22;59977;48.782;9.190;2023-02-11T04:18:01;1.60;99.90
24632;DHT22;59977;48.782;9.190;2023-02-11T04:20:28;1.70;99.90
24632;DHT22;59977;48.782;9.190;2023-02-11T04:22:53;1.60;99.90
24632;DHT22;59977;48.782;9.190;2023-02-11T04:25:19;1.60;99.90
24632;DHT22;59977;48.782;9.190;2023-02-11T04:27:44;1.60;99.90
24632;DHT22;59977;48.782;9.190;2023-02-11T04:30:10;1.50;99.90
24632;DHT22;59977;48.782;9.190;2023-02-11T04:32:36;1.50;99.90
24632;DHT22;59977;48.782;9.190;2023-02-11T04:35:02;1.50;99.90
24632;DHT22;59977;48.782;9.190;2023-02-11T04:37:27;1.50;99.90
24632;DHT22;59977;48.782;9.190;2023-02-11T04:39:53;1.40;99.90
24632;DHT22;59977;48.782;9.190;2023-02-11T04:42:19;1.30;99.90
24632;DHT22;59977;48.782;9.190;2023-02-11T04:44:44;1.40;99.90
24632;DHT22;59977;48.782;9.190;2023-02-11T04:47:10;1.40;99.90
24632;DHT22;59977;48.782;9.190;2023-02-11T04:49:38;1.60;99.90
24632;DHT22;59977;48.782;9.190;2023-02-11T04:52:03;1.60;99.90
24632;DHT22;59977;48.782;9.190;2023-02-11T04:54:29;2.20;99.90
24632;DHT22;59977;48.782;9.190;2023-02-11T04:56:55;1.70;99.90
24632;DHT22;59977;48.782;9.190;2023-02-11T04:59:20;1.70;99.90
24632;DHT22;59977;48.782;9.190;2023-02-11T05:01:46;1.80;99.90
24632;DHT22;59977;48.782;9.190;2023-02-11T05:04:11;1.80;99.90
24632;DHT22;59977;48.782;9.190;2023-02-11T05:06:37;1.90;99.90
24632;DHT22;59977;48.782;9.190;2023-02-11T05:09:04;1.90;99.90
24632;DHT22;59977;48.782;9.190;2023-02-11T05:11:29;1.80;99.90
24632;DHT22;59977;48.782;9.190;2023-02-11T05:13:55;1.80;99.90
24632;DHT22;59977;48.782;9.190;2023-02-11T05:16:21;1.70;99.90
24632;DHT22;59977;48.782;9.190;2023-02-11T05:18:46;1.70;99.90
24632;DHT22;59977;48.782;9.190;2023-02-11T05:21:15;1.70;99.90
24632;DHT22;59977;48.782;9.190;2023-02-11T05:23:42;1.70;99.90
24632;DHT22;59977;48.782;9.190;2023-02-11T05:26:08;1.70;99.90
24632;DHT22;59977;48.782;9.190;2023-02-11T05:28:34;1.70;99.90
24632;DHT22;59977;48.782;9.190;2023-02-11T05:31:00;1.80;99.90
24632;DHT22;59977;48.782;9.190;2023-02-11T05:33:26;1.80;99.90
24632;DHT22;59977;48.782;9.190;2023-02-11T05:36:00;1.90;99.90
24632;DHT22;59977;48.782;9.190;2023-02-11T05:38:26;1.90;99.90
24632;DHT22;59977;48.782;9.190;2023-02-11T05:40:52;1.90;99.90
24632;DHT22;59977;48.782;9.190;2023-02-11T05:43:17;2.00;99.90
24632;DHT22;59977;48.782;9.190;2023-02-11T05:45:43;2.00;99.90
24632;DHT22;59977;48.782;9.190;2023-02-11T05:48:08;2.00;99.90
24632;DHT22;59977;48.782;9.190;2023-02-11T05:50:34;1.90;99.90
24632;DHT22;59977;48.782;9.190;2023-02-11T05:53:00;1.80;99.90
24632;DHT22;59977;48.782;9.190;2023-02-11T05:55:25;1.80;99.90
24632;DHT22;59977;48.782;9.190;2023-02-11T05:57:51;1.80;99.90
24632;DHT22;59977;48.782;9.190;2023-02-11T06:00:16;1.90;99.90
24632;DHT22;59977;48.782;9.190;2023-02-11T06:02:42;1.90;99.90
24632;DHT22;59977;48.782;9.190;2023-02-11T06:05:08;1.90;99.90
24632;DHT22;59977;48.782;9.190;2023-02-11T06:07:34;2.10;99.90
24632;DHT22;59977;48.782;9.190;2023-02-11T06:10:00;2.10;99.90
24632;DHT22;59977;48.782;9.190;2023-02-11T06:12:25;2.10;99.90
24632;DHT22;59977;48.782;9.190;2023-02-11T06:14:51;2.10;99.90
24632;DHT22;59977;48.782;9.190;2023-02-11T06:17:17;2.00;99.90
24632;DHT22;59977;48.782;9.190;2023-02-11T06:19:42;2.00;99.90
24632;DHT22;59977;48.782;9.190;2023-02-11T06:22:08;2.00;99.90
24632;DHT22;59977;48.782;9.190;2023-02-11T06:24:34;1.90;99.90
24632;DHT22;59977;48.782;9.190;2023-02-11T06:26:59;1.80;99.90
24632;DHT22;59977;48.782;9.190;2023-02-11T06:29:25;1.80;99.90
24632;DHT22;59977;48.782;9.190;2023-02-11T06:31:51;1.90;99.90
24632;DHT22;59977;48.782;9.190;2023-02-11T06:34:16;2.00;99.90
24632;DHT22;59977;48.782;9.190;2023-02-11T06:36:42;2.10;99.90
24632;DHT22;59977;48.782;9.190;2023-02-11T06:39:08;2.00;99.90
24632;DHT22;59977;48.782;9.190;2023-02-11T06:41:34;2.00;99.90
24632;DHT22;59977;48.782;9.190;2023-02-11T06:44:00;2.00;99.90
24632;DHT22;59977;48.782;9.190;2023-02-11T06:46:25;2.00;99.90
24632;DHT22;59977;48.782;9.190;2023-02-11T06:48:51;2.00;99.90
24632;DHT22;59977;48.782;9.190;2023-02-11T06:51:17;2.00;99.90
24632;DHT22;59977;48.782;9.190;2023-02-11T06:53:44;1.90;99.90
24632;DHT22;59977;48.782;9.190;2023-02-11T06:56:16;1.90;99.90
24632;DHT22;59977;48.782;9.190;2023-02-11T06:58:42;1.90;99.90
24632;DHT22;59977;48.782;9.190;2023-02-11T07:01:10;1.90;99.90
24632;DHT22;59977;48.782;9.190;2023-02-11T07:03:39;2.00;99.90
24632;DHT22;59977;48.782;9.190;2023-02-11T07:06:06;-0.40;99.90
24632;DHT22;59977;48.782;9.190;2023-02-11T07:08:33;2.00;99.90
24632;DHT22;59977;48.782;9.190;2023-02-11T07:10:59;2.10;99.90
24632;DHT22;59977;48.782;9.190;2023-02-11T07:13:24;2.20;99.90
24632;DHT22;59977;48.782;9.190;2023-02-11T07:15:50;2.20;99.90
24632;DHT22;59977;48.782;9.190;2023-02-11T07:18:15;2.20;99.90
24632;DHT22;59977;48.782;9.190;2023-02-11T07:20:41;2.20;99.90
24632;DHT22;59977;48.782;9.190;2023-02-11T07:23:14;2.20;99.90
24632;DHT22;59977;48.782;9.190;2023-02-11T07:25:39;2.30;99.90
24632;DHT22;59977;48.782;9.190;2023-02-11T07:28:05;2.40;99.90
24632;DHT22;59977;48.782;9.190;2023-02-11T07:30:30;2.50;99.90
24632;DHT22;59977;48.782;9.190;2023-02-11T07:32:56;2.50;99.90
24632;DHT22;59977;48.782;9.190;2023-02-11T07:35:22;2.40;99.90
24632;DHT22;59977;48.782;9.190;2023-02-11T07:37:47;2.30;99.90
24632;DHT22;59977;48.782;9.190;2023-02-11T07:40:13;2.30;99.90
24632;DHT22;59977;48.782;9.190;2023-02-11T07:42:38;2.40;99.90
24632;DHT22;59977;48.782;9.190;2023-02-11T07:45:07;2.50;99.90
24632;DHT22;59977;48.782;9.190;2023-02-11T07:51:36;2.70;99.90
24632;DHT22;59977;48.782;9.190;2023-02-11T07:54:32;2.80;99.90
24632;DHT22;59977;48.782;9.190;2023-02-11T07:56:58;2.90;99.90
24632;DHT22;59977;48.782;9.190;2023-02-11T07:59:23;3.00;99.90
24632;DHT22;59977;48.782;9.190;2023-02-11T08:01:50;3.10;99.90
24632;DHT22;59977;48.782;9.190;2023-02-11T08:04:15;3.10;99.90
24632;DHT22;59977;48.782;9.190;2023-02-11T08:06:42;3.20;99.90
24632;DHT22;59977;48.782;9.190;2023-02-11T08:09:10;3.20;99.90
24632;DHT22;59977;48.782;9.190;2023-02-11T08:11:38;3.20;99.90
24632;DHT22;59977;48.782;9.190;2023-02-11T08:14:04;3.20;99.90
24632;DHT22;59977;48.782;9.190;2023-02-11T08:16:32;3.20;99.90
24632;DHT22;59977;48.782;9.190;2023-02-11T08:19:00;3.20;99.90
24632;DHT22;59977;48.782;9.190;2023-02-11T08:21:27;3.30;99.90
24632;DHT22;59977;48.782;9.190;2023-02-11T08:23:54;3.40;99.90
24632;DHT22;59977;48.782;9.190;2023-02-11T08:26:22;3.50;99.90
24632;DHT22;59977;48.782;9.190;2023-02-11T08:28:50;3.60;99.90
24632;DHT22;59977;48.782;9.190;2023-02-11T08:31:22;3.70;99.90
24632;DHT22;59977;48.782;9.190;2023-02-11T08:33:50;3.80;99.90
24632;DHT22;59977;48.782;9.190;2023-02-11T08:36:21;3.80;99.90
24632;DHT22;59977;48.782;9.190;2023-02-11T08:38:48;3.70;99.90
24632;DHT22;59977;48.782;9.190;2023-02-11T08:41:16;3.60;99.90
24632;DHT22;59977;48.782;9.190;2023-02-11T08:43:44;3.60;99.90
24632;DHT22;59977;48.782;9.190;2023-02-11T08:46:13;3.60;99.90
24632;DHT22;59977;48.782;9.190;2023-02-11T08:48:39;4.40;99.90
24632;DHT22;59977;48.782;9.190;2023-02-11T08:51:09;3.60;99.90
24632;DHT22;59977;48.782;9.190;2023-02-11T08:53:36;3.70;99.90
24632;DHT22;59977;48.782;9.190;2023-02-11T08:56:03;3.90;99.90
24632;DHT22;59977;48.782;9.190;2023-02-11T08:58:28;4.00;99.90
24632;DHT22;59977;48.782;9.190;2023-02-11T09:00:54;4.10;99.90
24632;DHT22;59977;48.782;9.190;2023-02-11T09:03:20;4.20;99.90
24632;DHT22;59977;48.782;9.190;2023-02-11T09:05:47;4.30;99.90
24632;DHT22;59977;48.782;9.190;2023-02-11T09:08:21;4.30;99.90
24632;DHT22;59977;48.782;9.190;2023-02-11T09:10:47;4.30;99.90
24632;DHT22;59977;48.782;9.190;2023-02-11T09:13:12;4.30;99.90
24632;DHT22;59977;48.782;9.190;2023-02-11T09:15:38;4.40;99.90
24632;DHT22;59977;48.782;9.190;2023-02-11T09:18:04;4.50;99.90
24632;DHT22;59977;48.782;9.190;2023-02-11T09:20:30;4.50;99.90
24632;DHT22;59977;48.782;9.190;2023-02-11T09:22:57;4.50;99.90
24632;DHT22;59977;48.782;9.190;2023-02-11T09:25:23;4.50;99.90
24632;DHT22;59977;48.782;9.190;2023-02-11T09:27:49;4.60;99.90
24632;DHT22;59977;48.782;9.190;2023-02-11T09:30:15;5.30;99.90
24632;DHT22;59977;48.782;9.190;2023-02-11T09:32:41;4.60;99.90
24632;DHT22;59977;48.782;9.190;2023-02-11T09:35:07;4.70;99.90
24632;DHT22;59977;48.782;9.190;2023-02-11T09:37:33;6.40;99.90
24632;DHT22;59977;48.782;9.190;2023-02-11T09:39:58;4.90;99.90
24632;DHT22;59977;48.782;9.190;2023-02-11T09:45:03;5.00;99.90
24632;DHT22;59977;48.782;9.190;2023-02-11T09:47:36;5.10;99.90
24632;DHT22;59977;48.782;9.190;2023-02-11T09:50:12;5.10;99.90
24632;DHT22;59977;48.782;9.190;2023-02-11T09:52:57;5.20;99.90
24632;DHT22;59977;48.782;9.190;2023-02-11T09:55:38;5.30;99.90
24632;DHT22;59977;48.782;9.190;2023-02-11T09:58:17;5.40;99.90
24632;DHT22;59977;48.782;9.190;2023-02-11T10:01:01;5.50;99.90
24632;DHT22;59977;48.782;9.190;2023-02-11T10:03:41;5.50;99.90
24632;DHT22;59977;48.782;9.190;2023-02-11T10:09:09;5.40;99.90
24632;DHT22;59977;48.782;9.190;2023-02-11T10:14:35;5.50;99.90
24632;DHT22;59977;48.782;9.190;2023-02-11T10:17:57;5.40;99.90
24632;DHT22;59977;48.782;9.190;2023-02-11T10:20:30;5.40;99.90
24632;DHT22;59977;48.782;9.190;2023-02-11T10:23:00;5.50;99.90
24632;DHT22;59977;48.782;9.190;2023-02-11T10:25:33;7.00;99.90
24632;DHT22;59977;48.782;9.190;2023-02-11T10:28:19;5.60;99.90
24632;DHT22;59977;48.782;9.190;2023-02-11T10:33:53;5.70;99.90
24632;DHT22;59977;48.782;9.190;2023-02-11T10:36:24;5.70;99.90
24632;DHT22;59977;48.782;9.190;2023-02-11T10:38:54;5.70;99.90
24632;DHT22;59977;48.782;9.190;2023-02-11T10:41:24;7.70;99.90
24632;DHT22;59977;48.782;9.190;2023-02-11T10:43:51;5.90;99.90
24632;DHT22;59977;48.782;9.190;2023-02-11T10:46:24;7.80;99.90
24632;DHT22;59977;48.782;9.190;2023-02-11T12:27:21;8.20;99.90
24632;DHT22;59977;48.782;9.190;2023-02-11T12:33:37;8.30;99.90
24632;DHT22;59977;48.782;9.190;2023-02-11T12:36:26;8.40;99.90
24632;DHT22;59977;48.782;9.190;2023-02-11T12:39:06;8.60;99.90
24632;DHT22;59977;48.782;9.190;2023-02-11T12:44:43;9.00;99.90
24632;DHT22;59977;48.782;9.190;2023-02-11T12:55:58;8.70;99.90
24632;DHT22;59977;48.782;9.190;2023-02-11T12:58:27;9.70;99.90
24632;DHT22;59977;48.782;9.190;2023-02-11T13:01:09;9.50;99.90
24632;DHT22;59977;48.782;9.190;2023-02-11T13:03:41;8.70;99.90
24632;DHT22;59977;48.782;9.190;2023-02-11T13:06:19;8.50;99.90
24632;DHT22;59977;48.782;9.190;2023-02-11T13:08:49;10.50;99.90
24632;DHT22;59977;48.782;9.190;2023-02-11T13:14:53;8.50;99.90
24632;DHT22;59977;48.782;9.190;2023-02-11T13:20:24;8.80;99.90
24632;DHT22;59977;48.782;9.190;2023-02-11T13:25:56;9.00;99.90
24632;DHT22;59977;48.782;9.190;2023-02-11T13:28:55;8.80;99.90
24632;DHT22;59977;48.782;9.190;2023-02-11T13:31:21;8.60;99.90
24632;DHT22;59977;48.782;9.190;2023-02-11T13:33:51;8.70;99.90
24632;DHT22;59977;48.782;9.190;2023-02-11T13:39:26;8.50;99.90
24632;DHT22;59977;48.782;9.190;2023-02-11T13:42:01;8.30;99.90
24632;DHT22;59977;48.782;9.190;2023-02-11T13:44:27;8.20;99.90
24632;DHT22;59977;48.782;9.190;2023-02-11T13:46:59;8.10;99.90
24632;DHT22;59977;48.782;9.190;2023-02-11T13:49:40;8.20;99.90
24632;DHT22;59977;48.782;9.190;2023-02-11T13:52:26;8.40;99.90
24632;DHT22;59977;48.782;9.190;2023-02-11T13:54:56;8.50;99.90
24632;DHT22;59977;48.782;9.190;2023-02-11T13:57:30;10.20;99.90
24632;DHT22;59977;48.782;9.190;2023-02-11T13:59:59;10.40;99.90
24632;DHT22;59977;48.782;9.190;2023-02-11T14:02:33;9.00;99.90
24632;DHT22;59977;48.782;9.190;2023-02-11T14:11:07;9.30;99.90
24632;DHT22;59977;48.782;9.190;2023-02-11T14:14:00;9.40;99.90
24632;DHT22;59977;48.782;9.190;2023-02-11T14:16:26;9.40;99.90
24632;DHT22;59977;48.782;9.190;2023-02-11T14:26:52;9.60;99.90
24632;DHT22;59977;48.782;9.190;2023-02-11T14:32:07;9.60;99.90
24632;DHT22;59977;48.782;9.190;2023-02-11T14:42:54;9.10;99.90
24632;DHT22;59977;48.782;9.190;2023-02-11T14:45:26;9.00;99.90
24632;DHT22;59977;48.782;9.190;2023-02-11T14:48:06;10.20;99.90
24632;DHT22;59977;48.782;9.190;2023-02-11T14:50:37;10.30;99.90
24632;DHT22;59977;48.782;9.190;2023-02-11T14:53:05;10.40;99.90
24632;DHT22;59977;48.782;9.190;2023-02-11T14:55:34;10.40;99.90
24632;DHT22;59977;48.782;9.190;2023-02-11T14:58:18;11.60;99.90
24632;DHT22;59977;48.782;9.190;2023-02-11T15:00:56;10.50;99.90
24632;DHT22;59977;48.782;9.190;2023-02-11T15:03:45;11.70;99.90
24632;DHT22;59977;48.782;9.190;2023-02-11T15:06:15;12.00;99.90
24632;DHT22;59977;48.782;9.190;2023-02-11T15:08:46;12.50;99.90
24632;DHT22;59977;48.782;9.190;2023-02-11T15:11:14;11.90;99.90
24632;DHT22;59977;48.782;9.190;2023-02-11T15:13:40;12.10;99.90
24632;DHT22;59977;48.782;9.190;2023-02-11T15:16:24;12.40;99.90
24632;DHT22;59977;48.782;9.190;2023-02-11T15:19:02;11.20;99.90
24632;DHT22;59977;48.782;9.190;2023-02-11T15:21:31;10.10;99.90
24632;DHT22;59977;48.782;9.190;2023-02-11T15:26:27;10.90;99.90
24632;DHT22;59977;48.782;9.190;2023-02-11T15:28:53;11.60;99.90
24632;DHT22;59977;48.782;9.190;2023-02-11T15:31:21;13.90;99.90
24632;DHT22;59977;48.782;9.190;2023-02-11T15:33:50;12.40;99.90
24632;DHT22;59977;48.782;9.190;2023-02-11T15:36:19;12.20;99.90
24632;DHT22;59977;48.782;9.190;2023-02-11T15:38:45;13.70;99.90
24632;DHT22;59977;48.782;9.190;2023-02-11T15:41:49;12.40;99.90
24632;DHT22;59977;48.782;9.190;2023-02-11T15:44:29;12.70;99.90
24632;DHT22;59977;48.782;9.190;2023-02-11T15:46:55;12.80;99.90
24632;DHT22;59977;48.782;9.190;2023-02-11T15:49:23;13.00;99.90
24632;DHT22;59977;48.782;9.190;2023-02-11T15:51:49;11.60;99.90
24632;DHT22;59977;48.782;9.190;2023-02-11T15:54:19;13.20;99.90
24632;DHT22;59977;48.782;9.190;2023-02-11T15:56:48;10.60;99.90
24632;DHT22;59977;48.782;9.190;2023-02-11T15:59:27;10.00;99.90
24632;DHT22;59977;48.782;9.190;2023-02-11T16:01:56;9.60;99.90
24632;DHT22;59977;48.782;9.190;2023-02-11T16:04:24;9.30;99.90
24632;DHT22;59977;48.782;9.190;2023-02-11T16:06:52;9.20;99.90
24632;DHT22;59977;48.782;9.190;2023-02-11T16:16:46;9.00;99.90
24632;DHT22;59977;48.782;9.190;2023-02-11T16:19:17;9.00;99.90
24632;DHT22;59977;48.782;9.190;2023-02-11T16:21:44;8.90;99.90
24632;DHT22;59977;48.782;9.190;2023-02-11T16:24:29;11.10;99.90
24632;DHT22;59977;48.782;9.190;2023-02-11T16:27:01;9.60;99.90
24632;DHT22;59977;48.782;9.190;2023-02-11T16:29:30;8.80;99.90
24632;DHT22;59977;48.782;9.190;2023-02-11T16:32:15;8.80;99.90
24632;DHT22;59977;48.782;9.190;2023-02-11T16:34:41;8.70;99.90
24632;DHT22;59977;48.782;9.190;2023-02-11T16:37:07;8.80;99.90
24632;DHT22;59977;48.782;9.190;2023-02-11T16:39:33;10.40;99.90
24632;DHT22;59977;48.782;9.190;2023-02-11T16:41:59;8.60;99.90
24632;DHT22;59977;48.782;9.190;2023-02-11T16:44:25;8.60;99.90
24632;DHT22;59977;48.782;9.190;2023-02-11T16:46:52;8.60;99.90
24632;DHT22;59977;48.782;9.190;2023-02-11T16:49:29;8.60;99.90
24632;DHT22;59977;48.782;9.190;2023-02-11T16:51:58;10.10;99.90
24632;DHT22;59977;48.782;9.190;2023-02-11T16:54:28;11.10;99.90
24632;DHT22;59977;48.782;9.190;2023-02-11T17:11:24;8.20;99.90
24632;DHT22;59977;48.782;9.190;2023-02-11T17:13:50;8.20;99.90
24632;DHT22;59977;48.782;9.190;2023-02-11T17:16:20;8.30;99.90
24632;DHT22;59977;48.782;9.190;2023-02-11T17:18:47;8.30;99.90
24632;DHT22;59977;48.782;9.190;2023-02-11T17:21:13;8.80;99.90
24632;DHT22;59977;48.782;9.190;2023-02-11T17:23:38;8.20;99.90
24632;DHT22;59977;48.782;9.190;2023-02-11T17:26:04;8.30;99.90
24632;DHT22;59977;48.782;9.190;2023-02-11T17:28:30;9.50;99.90
24632;DHT22;59977;48.782;9.190;2023-02-11T17:30:57;8.20;99.90
24632;DHT22;59977;48.782;9.190;2023-02-11T17:33:25;8.20;99.90
24632;DHT22;59977;48.782;9.190;2023-02-11T17:35:50;8.20;99.90
24632;DHT22;59977;48.782;9.190;2023-02-11T17:38:16;9.50;99.90
24632;DHT22;59977;48.782;9.190;2023-02-11T17:40:41;8.20;99.90
24632;DHT22;59977;48.782;9.190;2023-02-11T17:43:10;8.20;99.90
24632;DHT22;59977;48.782;9.190;2023-02-11T17:45:40;10.40;99.90
24632;DHT22;59977;48.782;9.190;2023-02-11T17:48:05;8.10;99.90
24632;DHT22;59977;48.782;9.190;2023-02-11T17:50:34;8.30;99.90
24632;DHT22;59977;48.782;9.190;2023-02-11T17:53:00;8.30;99.90
24632;DHT22;59977;48.782;9.190;2023-02-11T17:55:26;11.30;99.90
24632;DHT22;59977;48.782;9.190;2023-02-11T17:57:51;11.20;99.90
24632;DHT22;59977;48.782;9.190;2023-02-11T18:00:17;8.20;99.90
24632;DHT22;59977;48.782;9.190;2023-02-11T18:02:43;8.20;99.90
24632;DHT22;59977;48.782;9.190;2023-02-11T18:05:09;8.20;99.90
24632;DHT22;59977;48.782;9.190;2023-02-11T18:07:34;8.20;99.90
24632;DHT22;59977;48.782;9.190;2023-02-11T18:10:00;8.20;99.90
24632;DHT22;59977;48.782;9.190;2023-02-11T18:12:26;8.30;99.90
24632;DHT22;59977;48.782;9.190;2023-02-11T18:14:52;8.20;99.90
24632;DHT22;59977;48.782;9.190;2023-02-11T18:17:20;9.50;99.90
24632;DHT22;59977;48.782;9.190;2023-02-11T18:19:46;8.20;99.90
24632;DHT22;59977;48.782;9.190;2023-02-11T18:22:12;8.20;99.90
24632;DHT22;59977;48.782;9.190;2023-02-11T18:24:39;8.30;99.90
24632;DHT22;59977;48.782;9.190;2023-02-11T18:27:04;8.30;99.90
24632;DHT22;59977;48.782;9.190;2023-02-11T18:29:30;8.40;99.90
24632;DHT22;59977;48.782;9.190;2023-02-11T18:31:56;9.70;99.90
24632;DHT22;59977;48.782;9.190;2023-02-11T18:34:22;10.10;99.90
24632;DHT22;59977;48.782;9.190;2023-02-11T18:36:48;8.20;99.90
24632;DHT22;59977;48.782;9.190;2023-02-11T18:39:14;8.20;99.90
24632;DHT22;59977;48.782;9.190;2023-02-11T18:41:40;8.10;99.90
24632;DHT22;59977;48.782;9.190;2023-02-11T18:44:08;8.20;99.90
24632;DHT22;59977;48.782;9.190;2023-02-11T18:46:35;8.20;99.90
24632;DHT22;59977;48.782;9.190;2023-02-11T18:49:00;10.30;99.90
24632;DHT22;59977;48.782;9.190;2023-02-11T18:53:52;8.30;99.90
24632;DHT22;59977;48.782;9.190;2023-02-11T18:56:20;8.40;99.90
24632;DHT22;59977;48.782;9.190;2023-02-11T18:58:47;10.50;99.90
24632;DHT22;59977;48.782;9.190;2023-02-11T19:06:11;8.30;99.90
24632;DHT22;59977;48.782;9.190;2023-02-11T19:20:47;8.40;99.90
24632;DHT22;59977;48.782;9.190;2023-02-11T19:25:45;8.30;99.90
24632;DHT22;59977;48.782;9.190;2023-02-11T19:28:11;8.40;99.90
24632;DHT22;59977;48.782;9.190;2023-02-11T19:35:32;8.40;99.90
24632;DHT22;59977;48.782;9.190;2023-02-11T20:48:54;8.30;99.90
24632;DHT22;59977;48.782;9.190;2023-02-11T20:51:24;8.20;99.90
24632;DHT22;59977;48.782;9.190;2023-02-11T20:53:50;8.20;99.90
24632;DHT22;59977;48.782;9.190;2023-02-11T20:56:18;8.00;99.90
24632;DHT22;59977;48.782;9.190;2023-02-11T20:58:45;8.00;99.90
24632;DHT22;59977;48.782;9.190;2023-02-11T21:01:17;8.00;99.90
24632;DHT22;59977;48.782;9.190;2023-02-11T21:03:44;9.60;99.90
24632;DHT22;59977;48.782;9.190;2023-02-11T21:06:13;8.40;99.90
24632;DHT22;59977;48.782;9.190;2023-02-11T21:08:39;8.00;99.90
24632;DHT22;59977;48.782;9.190;2023-02-11T21:11:05;8.00;99.90
24632;DHT22;59977;48.782;9.190;2023-02-11T21:13:37;8.10;99.90
24632;DHT22;59977;48.782;9.190;2023-02-11T21:16:04;8.00;99.90
24632;DHT22;59977;48.782;9.190;2023-02-11T21:18:30;8.00;99.90
24632;DHT22;59977;48.782;9.190;2023-02-11T21:20:56;8.00;99.90
24632;DHT22;59977;48.782;9.190;2023-02-11T21:23:22;8.00;99.90
24632;DHT22;59977;48.782;9.190;2023-02-11T21:25:49;8.00;99.90
24632;DHT22;59977;48.782;9.190;2023-02-11T21:28:16;8.10;99.90
24632;DHT22;59977;48.782;9.190;2023-02-11T21:30:41;8.00;99.90